Terminal Aerodrome Forecast
Issued by NWS

Home | Current Version | Previous Version | Text Only | Print | Product List | Glossary On
Versions: 1 2 3 4 5 6 7 8 9 10 11 12 13 14 15 16 17 18 19 20 21 22 23 24 25
000
FTUS43 KGLD 121005 AAA
TAFMCK
TAF AMD
KMCK 121005Z 1210/1306 35010G18KT P6SM SCT010 BKN035
      TEMPO 1210/1214 6SM -RASN SCT006 BKN010
     FM121600 36011KT 5SM BR BKN009
     FM121800 35007KT P6SM BKN015
     FM122100 02005KT P6SM SCT050=

USA.gov is the U.S. government's official web portal to all federal, state and local government web resources and services.